KSPI/SPI METAR and TAF weather

Enter ICAO airport designator
Station Type Date Time Source
KSPI METAR 2021/05/15 23:52 UTC NOAA

KSPI 152352Z 18009KT 10SM BKN060 OVC070 17/07 A3014 RMK AO2 SLP206 60000 T01670072 10178 20156 58010 $


Station Type Date Time Source
KSPI Decoded METAR 2021/05/15 23:52 UTC NOAA

ABRAHAM LINCOLN CAPITAL AIRPORT , IL, United States (KSPI) 39-51N 89-41W 181M
May 15, 2021 - 07:52 PM EDT / 2021.05.15 2352 UTC
Wind: from the S (180 degrees) at 10 MPH (9 KT):0
Visibility: 10 mile(s):0
Sky conditions: overcast
Temperature: 62.1 F (16.7 C)
Dew Point: 45.0 F (7.2 C)
Relative Humidity: 53%
Pressure (altimeter): 30.14 in. Hg (1020 hPa)
Pressure tendency: 0.03 inches (1.0 hPa) lower than three hours ago
ob: KSPI 152352Z 18009KT 10SM BKN060 OVC070 17/07 A3014 RMK AO2 SLP206 60000 T01670072 10178 20156 58010
cycle: 0

Station Type Date Time Source
KSPI TAF 2021/05/15 18:27 UTC NOAA

KSPI 151723Z 1518/1618 17007KT P6SM VCSH SCT035 OVC070
FM160000 16005KT P6SM OVC035
FM160600 13004KT P6SM BKN028
FM160900 13007KT P6SM BKN011

Example: see airport list